Airfield :
LOGIN :

Register | Disclaimer

   EN    FR    IT 

 










Legend :    VFR   Marginal VFR   IFR   Intensive IFR   Very Intensive IFR
Visi :
Ceiling :
>= 8 km
>= 3000ft
5 to 8 km
1000 to 3000 ft
1500m to 5 km
500 to 1000 ft
800 to 1500m
200 to 500 ft
< 800m
< 200 ft
Symbols :   Thunderstorms  Fog  Heavy snow  Heavy precipitations  Wind > 20 kt
SIGMETs :     Misc.  Thunderstorms  Icing  Turbulence  Mountain Waves  Volcanic Ashes







- Airport Elevation : 289 ft
- IATA code : ZAD


LDZD - Zadar

CURRENT METAR :
  • 211530Z 27009KT 240V300 CAVOK 22/02 Q1022 NOSIG

EXPIRED METARs :
  • 211500Z 28007KT 220V330 CAVOK 22/03 Q1022 NOSIG
  • 211430Z 28008KT 230V360 CAVOK 22/03 Q1022 NOSIG
  • 211400Z 28010KT 250V350 CAVOK 23/03 Q1023 NOSIG
  • 211330Z 29009KT 250V320 CAVOK 23/02 Q1023 NOSIG
  • 211300Z 29011KT 230V320 CAVOK 23/M00 Q1023 NOSIG

TAF TAF LDZD
Valid from the 21 at 12:00 until the 22 at 12:00 UTC


211125Z 2112/2212 30007KT CAVOK TX24/2113Z TN10/2203Z
BECMG 2116/2118 VRB02KT
BECMG 2207/2209 12008KT
No reported NOTAMs for that airfield.



MET'MAP, your aeronautical weather chart ! - Copyright ORBIFLY December 2007 - Disclaimer

ORBIFLY MET'MAP TEAM :

Programming & Development : Alexandra Zaïnal
Concept & Development : Baudouin d'Aumeries
Co-Development & Prog : Marc-Olivier Méhu
Technical & hardware support : Manuel Goepfert

Contact : metmap@orbifly.com




SOURCES & CREDITS :

   NOAA